Terminal Aerodrome Forecast
Issued by NWS Sioux Falls, SD

Home | Current Version | Previous Version | Graphics & Text | Print | Product List | Glossary On
Versions: 1 2 3 4 5 6 7 8 9 10 11 12 13 14 15 16 17 18 19
000
FTUS43 KFSD 220522
TAFFSD
TAF
KFSD 220522Z 2206/2306 22004KT P6SM FEW120
     FM221400 27005KT P6SM SCT200
     FM221900 31013KT P6SM SCT150
     FM230400 36010KT P6SM SCT050=

USA.gov is the U.S. government's official web portal to all federal, state and local government web resources and services.